createdAt,value
2023-04-01T00:00:28.216Z,0.00
2023-04-01T00:01:28.243Z,0.00
2023-04-01T00:02:28.216Z,0.00
2023-04-01T00:03:28.492Z,0.00
2023-04-01T00:04:28.238Z,0.00
2023-04-01T00:05:28.183Z,0.00
2023-04-01T00:06:28.155Z,0.00
2023-04-01T00:07:30.692Z,0.00
2023-04-01T00:08:28.135Z,0.00
2023-04-01T00:09:29.988Z,0.00
2023-04-01T00:10:28.129Z,0.00
2023-04-01T00:11:28.086Z,0.00
2023-04-01T00:12:28.090Z,0.00
2023-04-01T00:13:28.065Z,0.00
2023-04-01T00:14:28.058Z,0.00
2023-04-01T00:15:28.046Z,0.00
2023-04-01T00:16:28.065Z,0.00
2023-04-01T00:17:28.020Z,0.00
2023-04-01T00:18:28.013Z,0.00
2023-04-01T00:19:27.976Z,0.00
2023-04-01T00:20:27.974Z,0.00
2023-04-01T00:21:27.984Z,0.00
2023-04-01T00:22:27.982Z,0.00
2023-04-01T00:23:27.925Z,0.00
2023-04-01T00:24:27.925Z,0.00
2023-04-01T00:25:27.901Z,0.00
2023-04-01T00:26:27.906Z,0.00
2023-04-01T00:27:27.880Z,0.00
2023-04-01T00:28:27.894Z,0.00
2023-04-01T00:29:27.911Z,0.00
2023-04-01T00:30:27.874Z,0.00
2023-04-01T00:31:27.909Z,0.00
2023-04-01T00:32:27.875Z,0.00
2023-04-01T00:33:27.826Z,0.00
2023-04-01T00:34:27.882Z,0.00
2023-04-01T00:35:27.794Z,0.00
2023-04-01T00:36:27.912Z,0.00
2023-04-01T00:37:27.768Z,0.00
2023-04-01T00:38:27.743Z,0.00
2023-04-01T00:39:27.731Z,0.00
2023-04-01T00:40:27.759Z,0.00
2023-04-01T00:41:27.716Z,0.00
2023-04-01T00:42:27.688Z,0.00
2023-04-01T00:43:27.668Z,0.00
2023-04-01T00:44:27.697Z,0.00
2023-04-01T00:45:27.681Z,0.00
2023-04-01T00:46:27.714Z,0.00
2023-04-01T00:47:27.675Z,0.00
2023-04-01T00:48:27.610Z,0.00
2023-04-01T00:49:27.595Z,0.00
2023-04-01T00:50:27.610Z,0.00
2023-04-01T00:51:27.579Z,0.00
2023-04-01T00:52:27.620Z,0.00
2023-04-01T00:53:27.543Z,0.00
2023-04-01T00:54:27.529Z,0.00
2023-04-01T00:55:27.524Z,0.00
2023-04-01T00:56:27.514Z,0.00
2023-04-01T00:57:27.527Z,0.00
2023-04-01T00:58:27.538Z,0.00
2023-04-01T00:59:27.480Z,0.00
2023-04-01T01:00:27.465Z,0.00
2023-04-01T01:01:27.500Z,0.00
2023-04-01T01:02:27.547Z,0.00
2023-04-01T01:03:27.509Z,0.00
2023-04-01T01:04:27.480Z,0.00
2023-04-01T01:05:27.597Z,0.00
2023-04-01T01:06:27.390Z,0.00
2023-04-01T01:07:27.377Z,0.00
2023-04-01T01:08:27.344Z,0.00
2023-04-01T01:09:27.368Z,0.00
2023-04-01T01:10:27.360Z,0.00
2023-04-01T01:11:27.946Z,0.00
2023-04-01T01:12:27.296Z,0.00
2023-04-01T01:13:27.291Z,0.00
2023-04-01T01:14:27.303Z,0.00
2023-04-01T01:15:27.259Z,0.00
2023-04-01T01:16:27.337Z,0.00
2023-04-01T01:17:27.272Z,0.00
2023-04-01T01:18:27.845Z,0.00
2023-04-01T01:19:27.210Z,0.00
2023-04-01T01:20:27.188Z,0.00
2023-04-01T01:21:27.185Z,0.00
2023-04-01T01:22:27.205Z,0.00
2023-04-01T01:23:27.167Z,0.00
2023-04-01T01:24:27.160Z,0.00
2023-04-01T01:25:27.182Z,0.00
2023-04-01T01:26:27.144Z,0.00
2023-04-01T01:27:27.149Z,0.00
2023-04-01T01:28:27.114Z,0.00
2023-04-01T01:29:27.070Z,0.00
2023-04-01T01:30:27.077Z,0.00
2023-04-01T01:31:27.081Z,0.00
2023-04-01T01:32:27.072Z,0.00
2023-04-01T01:33:27.082Z,0.00
2023-04-01T01:34:27.040Z,0.00
2023-04-01T01:35:27.006Z,0.00
2023-04-01T01:36:27.017Z,0.00
2023-04-01T01:37:27.001Z,0.00
2023-04-01T01:38:26.965Z,0.00
2023-04-01T01:39:26.953Z,0.00
2023-04-01T01:40:27.004Z,0.00
2023-04-01T01:41:26.942Z,0.00
2023-04-01T01:42:26.920Z,0.00
2023-04-01T01:43:26.907Z,0.00
2023-04-01T01:44:26.887Z,0.00
2023-04-01T01:45:26.869Z,0.00
2023-04-01T01:46:26.945Z,0.00
2023-04-01T01:47:26.891Z,0.00
2023-04-01T01:48:26.879Z,0.00
2023-04-01T01:49:26.845Z,0.00
2023-04-01T01:50:26.825Z,0.00
2023-04-01T01:51:26.791Z,0.00
2023-04-01T01:52:26.810Z,0.00
2023-04-01T01:53:26.771Z,0.00
2023-04-01T01:54:26.781Z,0.00
2023-04-01T01:55:26.748Z,0.00
2023-04-01T01:56:26.721Z,0.00
2023-04-01T01:57:26.740Z,0.00
2023-04-01T01:58:26.721Z,0.00
2023-04-01T01:59:26.726Z,0.00
2023-04-01T02:00:26.680Z,0.00
2023-04-01T02:01:26.877Z,0.00
2023-04-01T02:02:26.698Z,0.00
2023-04-01T02:03:26.656Z,0.00
2023-04-01T02:04:26.691Z,0.00
2023-04-01T02:05:26.649Z,0.00
2023-04-01T02:06:26.610Z,0.00
2023-04-01T02:07:26.602Z,0.00
2023-04-01T02:08:26.569Z,0.00
2023-04-01T02:09:26.575Z,0.00
2023-04-01T02:10:26.576Z,0.00
2023-04-01T02:11:26.576Z,0.00
2023-04-01T02:12:26.527Z,0.00
2023-04-01T02:13:26.532Z,0.00
2023-04-01T02:14:26.511Z,0.00
2023-04-01T02:15:26.501Z,0.00
2023-04-01T02:16:26.652Z,0.00
2023-04-01T02:17:26.497Z,0.00
2023-04-01T02:18:26.456Z,0.00
2023-04-01T02:19:26.442Z,0.00
2023-04-01T02:20:26.442Z,0.00
2023-04-01T02:21:26.426Z,0.00
2023-04-01T02:22:26.444Z,0.00
2023-04-01T02:23:26.410Z,0.00
2023-04-01T02:24:26.389Z,0.00
2023-04-01T02:25:26.378Z,0.00
2023-04-01T02:26:26.349Z,0.00
2023-04-01T02:27:26.353Z,0.00
2023-04-01T02:28:26.342Z,0.00
2023-04-01T02:29:26.316Z,0.00
2023-04-01T02:30:26.289Z,0.00
2023-04-01T02:31:26.321Z,0.00
2023-04-01T02:32:26.286Z,0.00
2023-04-01T02:33:26.255Z,0.00
2023-04-01T02:34:26.272Z,0.00
2023-04-01T02:35:26.252Z,0.00
2023-04-01T02:36:26.275Z,0.00
2023-04-01T02:37:26.230Z,0.00
2023-04-01T02:38:26.193Z,0.00
2023-04-01T02:39:26.190Z,0.00
2023-04-01T02:40:26.208Z,0.00
2023-04-01T02:41:26.171Z,0.00
2023-04-01T02:42:26.132Z,0.00
2023-04-01T02:43:26.129Z,0.00
2023-04-01T02:44:26.122Z,0.00
2023-04-01T02:45:26.101Z,0.00
2023-04-01T02:46:26.200Z,0.00
2023-04-01T02:47:26.136Z,0.00
2023-04-01T02:48:26.063Z,0.00
2023-04-01T02:49:26.076Z,0.00
2023-04-01T02:50:26.044Z,0.00
2023-04-01T02:51:26.034Z,0.00
2023-04-01T02:52:26.033Z,0.00
2023-04-01T02:53:25.998Z,0.00
2023-04-01T02:54:26.019Z,0.00
2023-04-01T02:55:25.980Z,0.00
2023-04-01T02:56:25.973Z,0.00
2023-04-01T02:57:25.993Z,0.00
2023-04-01T02:58:25.985Z,0.00
2023-04-01T02:59:25.927Z,0.00
2023-04-01T03:00:25.920Z,0.00
2023-04-01T03:01:25.990Z,0.00
2023-04-01T03:02:26.001Z,0.00
2023-04-01T03:03:25.944Z,0.00
2023-04-01T03:04:25.931Z,0.00
2023-04-01T03:05:25.878Z,0.00
2023-04-01T03:06:25.835Z,0.00
2023-04-01T03:07:25.857Z,0.00
2023-04-01T03:08:25.846Z,0.00
2023-04-01T03:09:25.810Z,0.00
2023-04-01T03:10:25.828Z,0.00
2023-04-01T03:11:25.807Z,0.00
2023-04-01T03:12:25.777Z,0.00
2023-04-01T03:13:25.756Z,0.00
2023-04-01T03:14:25.729Z,0.00
2023-04-01T03:15:25.741Z,0.00
2023-04-01T03:16:25.800Z,0.00
2023-04-01T03:17:25.745Z,0.00
2023-04-01T03:18:25.702Z,0.00
2023-04-01T03:19:25.685Z,0.00
2023-04-01T03:20:25.695Z,0.00
2023-04-01T03:21:25.665Z,0.00
2023-04-01T03:22:25.661Z,0.00
2023-04-01T03:23:25.628Z,0.00
2023-04-01T03:24:25.627Z,0.00
2023-04-01T03:25:25.596Z,0.00
2023-04-01T03:26:25.644Z,0.00
2023-04-01T03:27:25.582Z,0.00
2023-04-01T03:28:25.577Z,0.00
2023-04-01T03:29:25.553Z,0.00
2023-04-01T03:30:25.547Z,0.00
2023-04-01T03:31:25.579Z,0.00
2023-04-01T03:32:25.604Z,0.00
2023-04-01T03:33:25.570Z,0.00
2023-04-01T03:34:25.524Z,0.00
2023-04-01T03:35:25.478Z,0.00
2023-04-01T03:36:25.507Z,0.00
2023-04-01T03:37:25.457Z,0.00
2023-04-01T03:38:25.434Z,0.00
2023-04-01T03:39:25.415Z,0.00
2023-04-01T03:40:25.436Z,0.00
2023-04-01T03:41:25.408Z,0.00
2023-04-01T03:42:25.412Z,0.00
2023-04-01T03:43:25.370Z,0.00
2023-04-01T03:44:25.391Z,0.00
2023-04-01T03:45:25.355Z,0.00
2023-04-01T03:46:25.411Z,0.00
2023-04-01T03:47:25.359Z,0.00
2023-04-01T03:48:25.299Z,0.00
2023-04-01T03:49:25.294Z,0.00
2023-04-01T03:50:25.292Z,0.00
2023-04-01T03:51:25.257Z,0.00
2023-04-01T03:52:25.278Z,0.00
2023-04-01T03:53:25.235Z,0.00
2023-04-01T03:54:25.297Z,0.00
2023-04-01T03:55:25.224Z,0.00
2023-04-01T03:56:25.193Z,0.00
2023-04-01T03:57:25.239Z,0.00
2023-04-01T03:58:25.198Z,0.00
2023-04-01T03:59:25.155Z,0.00
2023-04-01T04:00:25.165Z,0.00
2023-04-01T04:01:25.129Z,0.00
2023-04-01T04:02:25.193Z,0.00
2023-04-01T04:03:25.259Z,0.00
2023-04-01T04:04:25.174Z,0.00
2023-04-01T04:05:25.075Z,0.00
2023-04-01T04:06:25.076Z,0.00
2023-04-01T04:07:25.063Z,0.00
2023-04-01T04:08:25.069Z,0.00
2023-04-01T04:09:25.062Z,0.00
2023-04-01T04:10:25.075Z,0.00
2023-04-01T04:11:25.024Z,0.00
2023-04-01T04:12:25.007Z,0.00
2023-04-01T04:13:25.002Z,0.00
2023-04-01T04:14:24.978Z,0.00
2023-04-01T04:15:24.956Z,0.00
2023-04-01T04:16:25.087Z,0.00
2023-04-01T04:17:24.960Z,0.00
2023-04-01T04:18:24.934Z,0.00
2023-04-01T04:19:24.906Z,0.00
2023-04-01T04:20:24.903Z,0.00
2023-04-01T04:21:24.894Z,0.00
2023-04-01T04:22:24.911Z,0.00
2023-04-01T04:23:24.873Z,0.00
2023-04-01T04:24:24.917Z,0.00
2023-04-01T04:25:24.822Z,0.00
2023-04-01T04:26:24.841Z,0.00
2023-04-01T04:27:24.816Z,0.00
2023-04-01T04:28:24.828Z,0.00
2023-04-01T04:29:24.808Z,0.00
2023-04-01T04:30:24.782Z,0.00
2023-04-01T04:31:24.782Z,0.00
2023-04-01T04:32:24.790Z,0.00
2023-04-01T04:33:24.754Z,0.00
2023-04-01T04:34:24.738Z,4.00
2023-04-01T04:35:24.716Z,4.00
2023-04-01T04:36:24.764Z,4.00
2023-04-01T04:37:24.680Z,8.00
2023-04-01T04:38:24.661Z,8.00
2023-04-01T04:39:24.667Z,4.00
2023-04-01T04:40:24.701Z,8.00
2023-04-01T04:41:24.657Z,12.00
2023-04-01T04:42:24.634Z,12.00
2023-04-01T04:43:24.602Z,16.00
2023-04-01T04:44:24.628Z,20.00
2023-04-01T04:45:24.587Z,24.00
2023-04-01T04:46:24.688Z,28.00
2023-04-01T04:47:24.598Z,40.00
2023-04-01T04:48:24.556Z,44.00
2023-04-01T04:49:24.541Z,44.00
2023-04-01T04:50:24.584Z,52.00
2023-04-01T04:51:24.524Z,60.00
2023-04-01T04:52:24.516Z,64.00
2023-04-01T04:53:24.482Z,68.00
2023-04-01T04:54:24.478Z,80.00
2023-04-01T04:55:24.463Z,100.00
2023-04-01T04:56:24.441Z,120.00
2023-04-01T04:57:24.496Z,116.00
2023-04-01T04:58:24.452Z,144.00
2023-04-01T04:59:24.412Z,156.00
2023-04-01T05:00:24.403Z,172.00
2023-04-01T05:01:24.406Z,188.00
2023-04-01T05:02:24.487Z,208.00
2023-04-01T05:03:24.600Z,228.00
2023-04-01T05:04:24.372Z,264.00
2023-04-01T05:05:24.316Z,312.00
2023-04-01T05:06:24.308Z,376.00
2023-04-01T05:07:24.313Z,392.00
2023-04-01T05:08:24.316Z,372.00
2023-04-01T05:09:24.355Z,376.00
2023-04-01T05:10:24.300Z,340.00
2023-04-01T05:11:24.250Z,324.00
2023-04-01T05:12:24.249Z,316.00
2023-04-01T05:13:24.244Z,404.00
2023-04-01T05:14:24.265Z,380.00
2023-04-01T05:15:24.260Z,400.00
2023-04-01T05:16:24.267Z,400.00
2023-04-01T05:17:24.236Z,444.00
2023-04-01T05:18:24.189Z,548.00
2023-04-01T05:19:24.162Z,452.00
2023-04-01T05:20:24.162Z,600.00
2023-04-01T05:21:24.120Z,704.00
2023-04-01T05:22:24.164Z,812.00
2023-04-01T05:23:24.150Z,980.00
2023-04-01T05:24:24.090Z,1060.00
2023-04-01T05:25:24.090Z,984.00
2023-04-01T05:26:24.093Z,1140.00
2023-04-01T05:27:24.047Z,1324.00
2023-04-01T05:28:24.092Z,1480.00
2023-04-01T05:29:24.026Z,1544.00
2023-04-01T05:30:24.024Z,1592.00
2023-04-01T05:31:24.098Z,1620.00
2023-04-01T05:32:24.003Z,1644.00
2023-04-01T05:33:23.991Z,1652.00
2023-04-01T05:34:24.012Z,1872.00
2023-04-01T05:35:24.082Z,1948.00
2023-04-01T05:36:23.926Z,1920.00
2023-04-01T05:37:23.914Z,1916.00
2023-04-01T05:38:23.939Z,1972.00
2023-04-01T05:39:23.976Z,2176.00
2023-04-01T05:40:23.926Z,3128.00
2023-04-01T05:41:23.878Z,2516.00
2023-04-01T05:42:23.886Z,2720.00
2023-04-01T05:43:23.862Z,2732.00
2023-04-01T05:44:23.827Z,2888.00
2023-04-01T05:45:23.820Z,2476.00
2023-04-01T05:46:23.874Z,2200.00
2023-04-01T05:47:23.858Z,2488.00
2023-04-01T05:48:23.810Z,2980.00
2023-04-01T05:49:24.065Z,4140.00
2023-04-01T05:50:23.792Z,5120.00
2023-04-01T05:51:23.768Z,4684.00
2023-04-01T05:52:23.768Z,3192.00
2023-04-01T05:53:23.718Z,3096.00
2023-04-01T05:54:23.724Z,3716.00
2023-04-01T05:55:23.687Z,3288.00
2023-04-01T05:56:23.689Z,4216.00
2023-04-01T05:57:23.831Z,3988.00
2023-04-01T05:58:23.691Z,6108.00
2023-04-01T05:59:23.648Z,5456.00
2023-04-01T06:00:23.625Z,5424.00
2023-04-01T06:01:23.656Z,4404.00
2023-04-01T06:02:23.676Z,4556.00
2023-04-01T06:03:23.678Z,5336.00
2023-04-01T06:04:23.713Z,4600.00
2023-04-01T06:05:23.567Z,4216.00
2023-04-01T06:06:23.555Z,7528.00
2023-04-01T06:07:23.557Z,5480.00
2023-04-01T06:08:23.503Z,8992.00
2023-04-01T06:09:23.561Z,6100.00
2023-04-01T06:10:23.538Z,4460.00
2023-04-01T06:11:23.477Z,6740.00
2023-04-01T06:12:23.489Z,6520.00
2023-04-01T06:13:23.476Z,5692.00
2023-04-01T06:14:23.458Z,4712.00
2023-04-01T06:15:23.420Z,5268.00
2023-04-01T06:16:23.513Z,4940.00
2023-04-01T06:17:23.470Z,5896.00
2023-04-01T06:18:23.390Z,5844.00
2023-04-01T06:19:23.408Z,5240.00
2023-04-01T06:20:23.368Z,6020.00
2023-04-01T06:21:23.361Z,4800.00
2023-04-01T06:22:23.410Z,5648.00
2023-04-01T06:23:23.352Z,8372.00
2023-04-01T06:24:23.306Z,6460.00
2023-04-01T06:25:23.315Z,7096.00
2023-04-01T06:26:23.286Z,6484.00
2023-04-01T06:27:23.300Z,6356.00
2023-04-01T06:28:24.087Z,6676.00
2023-04-01T06:29:23.300Z,6712.00
2023-04-01T06:30:23.263Z,6064.00
2023-04-01T06:31:23.324Z,7636.00
2023-04-01T06:32:23.394Z,6420.00
2023-04-01T06:33:23.202Z,6880.00
2023-04-01T06:34:23.243Z,7616.00
2023-04-01T06:35:23.183Z,9048.00
2023-04-01T06:36:23.238Z,8824.00
2023-04-01T06:37:23.149Z,7708.00
2023-04-01T06:38:23.151Z,7152.00
2023-04-01T06:39:23.166Z,7624.00
2023-04-01T06:40:23.141Z,9168.00
2023-04-01T06:41:23.089Z,7548.00
2023-04-01T06:42:23.091Z,10516.00
2023-04-01T06:43:23.077Z,7804.00
2023-04-01T06:44:23.081Z,8860.00
2023-04-01T06:45:23.034Z,7468.00
2023-04-01T06:46:23.113Z,12420.00
2023-04-01T06:47:23.017Z,10956.00
2023-04-01T06:48:23.019Z,15680.00
2023-04-01T06:49:22.999Z,15872.00
2023-04-01T06:50:22.967Z,17088.00
2023-04-01T06:51:22.988Z,16672.00
2023-04-01T06:52:22.980Z,20160.00
2023-04-01T06:53:22.951Z,14208.00
2023-04-01T06:54:22.916Z,11372.00
2023-04-01T06:55:23.090Z,8544.00
2023-04-01T06:56:22.919Z,12108.00
2023-04-01T06:57:22.922Z,14092.00
2023-04-01T06:58:22.938Z,10932.00
2023-04-01T06:59:22.869Z,9036.00
2023-04-01T07:00:22.850Z,7552.00
2023-04-01T07:01:22.891Z,9908.00
2023-04-01T07:02:22.813Z,10416.00
2023-04-01T07:03:22.852Z,8736.00
2023-04-01T07:04:22.894Z,8944.00
2023-04-01T07:05:22.786Z,12516.00
2023-04-01T07:06:22.758Z,14752.00
2023-04-01T07:07:22.754Z,16768.00
2023-04-01T07:08:22.739Z,14700.00
2023-04-01T07:09:22.749Z,13576.00
2023-04-01T07:10:22.747Z,15104.00
2023-04-01T07:11:22.697Z,16256.00
2023-04-01T07:12:22.689Z,15296.00
2023-04-01T07:13:22.679Z,13284.00
2023-04-01T07:14:22.683Z,14488.00
2023-04-01T07:15:22.652Z,15936.00
2023-04-01T07:16:22.719Z,12732.00
2023-04-01T07:17:22.752Z,16384.00
2023-04-01T07:18:22.620Z,21760.00
2023-04-01T07:19:22.608Z,19040.00
2023-04-01T07:20:22.580Z,14032.00
2023-04-01T07:21:22.562Z,14480.00
2023-04-01T07:22:22.611Z,16736.00
2023-04-01T07:23:22.549Z,15840.00
2023-04-01T07:24:22.602Z,15520.00
2023-04-01T07:25:22.508Z,20000.00
2023-04-01T07:26:22.536Z,20256.00
2023-04-01T07:27:22.535Z,22656.00
2023-04-01T07:28:22.527Z,22784.00
2023-04-01T07:29:22.518Z,17504.00
2023-04-01T07:30:22.490Z,18272.00
2023-04-01T07:31:22.522Z,20896.00
2023-04-01T07:32:22.480Z,16064.00
2023-04-01T07:33:22.415Z,17536.00
2023-04-01T07:34:22.424Z,24736.00
2023-04-01T07:35:22.395Z,18304.00
2023-04-01T07:36:22.420Z,19392.00
2023-04-01T07:37:22.380Z,32384.00
2023-04-01T07:38:22.380Z,24384.00
2023-04-01T07:39:22.357Z,21536.00
2023-04-01T07:40:22.377Z,19008.00
2023-04-01T07:41:22.324Z,18720.00
2023-04-01T07:42:22.299Z,17344.00
2023-04-01T07:43:22.290Z,18272.00
2023-04-01T07:44:22.280Z,15968.00
2023-04-01T07:45:22.287Z,16640.00
2023-04-01T07:46:22.371Z,14848.00
2023-04-01T07:47:22.222Z,10852.00
2023-04-01T07:48:22.226Z,10732.00
2023-04-01T07:49:22.221Z,10544.00
2023-04-01T07:50:22.186Z,7940.00
2023-04-01T07:51:22.204Z,8044.00
2023-04-01T07:52:22.309Z,8000.00
2023-04-01T07:53:22.165Z,6600.00
2023-04-01T07:54:22.142Z,6992.00
2023-04-01T07:55:22.161Z,7772.00
2023-04-01T07:56:22.140Z,9764.00
2023-04-01T07:57:22.161Z,10232.00
2023-04-01T07:58:22.140Z,9592.00
2023-04-01T07:59:22.101Z,9388.00
2023-04-01T08:00:22.081Z,10940.00
2023-04-01T08:01:22.066Z,12212.00
2023-04-01T08:02:22.103Z,13148.00
2023-04-01T08:03:22.113Z,10792.00
2023-04-01T08:04:22.065Z,10832.00
2023-04-01T08:05:22.021Z,12748.00
2023-04-01T08:06:21.999Z,15476.00
2023-04-01T08:07:21.988Z,11480.00
2023-04-01T08:08:21.966Z,10868.00
2023-04-01T08:09:21.964Z,11124.00
2023-04-01T08:10:21.975Z,11928.00
2023-04-01T08:11:21.912Z,10192.00
2023-04-01T08:12:22.628Z,9804.00
2023-04-01T08:13:21.891Z,9784.00
2023-04-01T08:14:21.889Z,10508.00
2023-04-01T08:15:21.887Z,11544.00
2023-04-01T08:16:21.887Z,11804.00
2023-04-01T08:17:21.859Z,14484.00
2023-04-01T08:18:21.830Z,13784.00
2023-04-01T08:19:21.824Z,12708.00
2023-04-01T08:20:21.799Z,10996.00
2023-04-01T08:21:21.792Z,11728.00
2023-04-01T08:22:21.794Z,12836.00
2023-04-01T08:23:21.759Z,11372.00
2023-04-01T08:24:22.831Z,11220.00
2023-04-01T08:25:21.731Z,9068.00
2023-04-01T08:26:21.721Z,11076.00
2023-04-01T08:27:21.738Z,10004.00
2023-04-01T08:28:21.717Z,10136.00
2023-04-01T08:29:21.686Z,13412.00
2023-04-01T08:30:21.675Z,10792.00
2023-04-01T08:31:21.699Z,12268.00
2023-04-01T08:32:21.689Z,10876.00
2023-04-01T08:33:21.621Z,10812.00
2023-04-01T08:34:21.670Z,11376.00
2023-04-01T08:35:21.625Z,10896.00
2023-04-01T08:36:21.629Z,11632.00
2023-04-01T08:37:21.575Z,10968.00
2023-04-01T08:38:21.566Z,9464.00
2023-04-01T08:39:21.557Z,8344.00
2023-04-01T08:40:21.647Z,9856.00
2023-04-01T08:41:21.529Z,9148.00
2023-04-01T08:42:21.504Z,11796.00
2023-04-01T08:43:21.499Z,11524.00
2023-04-01T08:44:21.481Z,9224.00
2023-04-01T08:45:21.471Z,9764.00
2023-04-01T08:46:21.619Z,9624.00
2023-04-01T08:47:21.470Z,9316.00
2023-04-01T08:48:21.443Z,10620.00
2023-04-01T08:49:21.424Z,10600.00
2023-04-01T08:50:21.434Z,9028.00
2023-04-01T08:51:21.496Z,9932.00
2023-04-01T08:52:21.422Z,11108.00
2023-04-01T08:53:21.449Z,8652.00
2023-04-01T08:54:21.469Z,10220.00
2023-04-01T08:55:21.343Z,12220.00
2023-04-01T08:56:21.343Z,10936.00
2023-04-01T08:57:21.355Z,10204.00
2023-04-01T08:58:21.342Z,12984.00
2023-04-01T08:59:21.314Z,12620.00
2023-04-01T09:00:21.315Z,9548.00
2023-04-01T09:01:21.295Z,6772.00
2023-04-01T09:02:21.391Z,10432.00
2023-04-01T09:03:21.314Z,7816.00
2023-04-01T09:04:21.273Z,8904.00
2023-04-01T09:05:21.202Z,12000.00
2023-04-01T09:06:21.197Z,11928.00
2023-04-01T09:07:21.195Z,11068.00
2023-04-01T09:08:21.182Z,9580.00
2023-04-01T09:09:21.185Z,9804.00
2023-04-01T09:10:21.258Z,9696.00
2023-04-01T09:11:21.153Z,11536.00
2023-04-01T09:12:21.121Z,10332.00
2023-04-01T09:13:21.127Z,8524.00
2023-04-01T09:14:21.108Z,9444.00
2023-04-01T09:15:21.120Z,8388.00
2023-04-01T09:16:21.153Z,10560.00
2023-04-01T09:17:21.106Z,8712.00
2023-04-01T09:18:21.083Z,10536.00
2023-04-01T09:19:21.074Z,10760.00
2023-04-01T09:20:21.166Z,8128.00
2023-04-01T09:21:21.001Z,8788.00
2023-04-01T09:22:21.036Z,7388.00
2023-04-01T09:23:20.990Z,10912.00
2023-04-01T09:24:20.984Z,8244.00
2023-04-01T09:25:20.992Z,8024.00
2023-04-01T09:26:20.944Z,10448.00
2023-04-01T09:27:20.956Z,8784.00
2023-04-01T09:28:20.985Z,9092.00
2023-04-01T09:29:20.930Z,8840.00
2023-04-01T09:30:20.956Z,8292.00
2023-04-01T09:31:20.933Z,9128.00
2023-04-01T09:32:20.900Z,8220.00
2023-04-01T09:33:20.884Z,6688.00
2023-04-01T09:34:20.902Z,6436.00
2023-04-01T09:35:20.862Z,6648.00
2023-04-01T09:36:20.859Z,6180.00
2023-04-01T09:37:20.797Z,7252.00
2023-04-01T09:38:21.015Z,9696.00
2023-04-01T09:39:20.798Z,7480.00
2023-04-01T09:40:20.812Z,7256.00
2023-04-01T09:41:20.753Z,8928.00
2023-04-01T09:42:20.743Z,8152.00
2023-04-01T09:43:20.738Z,8776.00
2023-04-01T09:44:20.736Z,7472.00
2023-04-01T09:45:20.733Z,6164.00
2023-04-01T09:46:20.781Z,7616.00
2023-04-01T09:47:20.665Z,8500.00
2023-04-01T09:48:21.450Z,7908.00
2023-04-01T09:49:20.650Z,7880.00
2023-04-01T09:50:20.671Z,8624.00
2023-04-01T09:51:20.659Z,8468.00
2023-04-01T09:52:20.646Z,7928.00
2023-04-01T09:53:20.617Z,9640.00
2023-04-01T09:54:20.688Z,11076.00
2023-04-01T09:55:20.573Z,10216.00
2023-04-01T09:56:20.572Z,11008.00
2023-04-01T09:57:20.621Z,9192.00
2023-04-01T09:58:20.573Z,10524.00
2023-04-01T09:59:20.549Z,10136.00
2023-04-01T10:00:20.515Z,10720.00
2023-04-01T10:01:20.521Z,9412.00
2023-04-01T10:02:20.501Z,10088.00
2023-04-01T10:03:20.513Z,11500.00
2023-04-01T10:04:20.556Z,11792.00
2023-04-01T10:05:20.491Z,9660.00
2023-04-01T10:06:20.451Z,11460.00
2023-04-01T10:07:20.423Z,12436.00
2023-04-01T10:08:20.423Z,7528.00
2023-04-01T10:09:21.324Z,9944.00
2023-04-01T10:10:20.416Z,11560.00
2023-04-01T10:11:20.380Z,10760.00
2023-04-01T10:12:20.368Z,11104.00
2023-04-01T10:13:20.359Z,12156.00
2023-04-01T10:14:20.379Z,12004.00
2023-04-01T10:15:20.331Z,12144.00
2023-04-01T10:16:20.416Z,14040.00
2023-04-01T10:17:20.292Z,12024.00
2023-04-01T10:18:20.273Z,11472.00
2023-04-01T10:19:21.521Z,13464.00
2023-04-01T10:20:20.365Z,11780.00
2023-04-01T10:21:20.425Z,11432.00
2023-04-01T10:22:20.388Z,9916.00
2023-04-01T10:23:20.868Z,13676.00
2023-04-01T10:24:20.264Z,11348.00
2023-04-01T10:25:20.207Z,11312.00
2023-04-01T10:26:20.203Z,13476.00
2023-04-01T10:27:20.174Z,11892.00
2023-04-01T10:28:20.188Z,13720.00
2023-04-01T10:29:20.302Z,14276.00
2023-04-01T10:30:20.132Z,12780.00
2023-04-01T10:31:20.127Z,11316.00
2023-04-01T10:32:20.117Z,10712.00
2023-04-01T10:33:20.130Z,10108.00
2023-04-01T10:34:20.111Z,9436.00
2023-04-01T10:35:20.064Z,9432.00
2023-04-01T10:36:20.070Z,8816.00
2023-04-01T10:37:20.035Z,9584.00
2023-04-01T10:38:20.032Z,8108.00
2023-04-01T10:39:20.051Z,9160.00
2023-04-01T10:40:20.028Z,10764.00
2023-04-01T10:41:19.980Z,8372.00
2023-04-01T10:42:20.040Z,8200.00
2023-04-01T10:43:19.957Z,9380.00
2023-04-01T10:44:20.099Z,11584.00
2023-04-01T10:45:19.927Z,10648.00
2023-04-01T10:46:19.960Z,9884.00
2023-04-01T10:47:19.889Z,7488.00
2023-04-01T10:48:19.936Z,13188.00
2023-04-01T10:49:19.893Z,15524.00
2023-04-01T10:50:19.930Z,10840.00
2023-04-01T10:51:19.838Z,10368.00
2023-04-01T10:52:19.882Z,10288.00
2023-04-01T10:53:19.831Z,8180.00
2023-04-01T10:54:19.813Z,9572.00
2023-04-01T10:55:19.792Z,14136.00
2023-04-01T10:56:19.793Z,9556.00
2023-04-01T10:57:19.792Z,8356.00
2023-04-01T10:58:19.778Z,11812.00
2023-04-01T10:59:19.768Z,13704.00
2023-04-01T11:00:19.749Z,9256.00
2023-04-01T11:01:19.772Z,10584.00
2023-04-01T11:02:19.757Z,12448.00
2023-04-01T11:03:19.826Z,11728.00
2023-04-01T11:04:19.777Z,9504.00
2023-04-01T11:05:20.858Z,13124.00
2023-04-01T11:06:19.683Z,10716.00
2023-04-01T11:07:20.000Z,9876.00
2023-04-01T11:08:19.693Z,9532.00
2023-04-01T11:09:20.506Z,10440.00
2023-04-01T11:10:19.952Z,11516.00
2023-04-01T11:11:19.650Z,10900.00
2023-04-01T11:12:19.671Z,11516.00
2023-04-01T11:13:19.552Z,13036.00
2023-04-01T11:14:19.563Z,13892.00
2023-04-01T11:15:19.539Z,11016.00
2023-04-01T11:16:19.814Z,10560.00
2023-04-01T11:17:19.807Z,8820.00
2023-04-01T11:18:19.489Z,11296.00
2023-04-01T11:19:20.315Z,12480.00
2023-04-01T11:20:19.518Z,10972.00
2023-04-01T11:21:19.491Z,11068.00
2023-04-01T11:22:19.477Z,13116.00
2023-04-01T11:23:19.456Z,12920.00
2023-04-01T11:24:19.520Z,13752.00
2023-04-01T11:25:19.496Z,10108.00
2023-04-01T11:26:19.507Z,12336.00
2023-04-01T11:27:19.403Z,12520.00
2023-04-01T11:28:19.418Z,15088.00
2023-04-01T11:29:19.375Z,13160.00
2023-04-01T11:30:19.347Z,15616.00
2023-04-01T11:31:19.388Z,17152.00
2023-04-01T11:32:19.310Z,17472.00
2023-04-01T11:33:20.857Z,15968.00
2023-04-01T11:34:19.339Z,18624.00
2023-04-01T11:35:19.287Z,17856.00
2023-04-01T11:36:19.288Z,19616.00
2023-04-01T11:37:19.330Z,18624.00
2023-04-01T11:38:19.257Z,18400.00
2023-04-01T11:39:19.243Z,18784.00
2023-04-01T11:40:19.237Z,14836.00
2023-04-01T11:41:19.251Z,11992.00
2023-04-01T11:42:19.185Z,11268.00
2023-04-01T11:43:32.307Z,11256.00
2023-04-01T11:44:19.190Z,14116.00
2023-04-01T11:45:19.149Z,17088.00
2023-04-01T11:46:19.194Z,18336.00
2023-04-01T11:47:19.136Z,15616.00
2023-04-01T11:48:19.149Z,18880.00
2023-04-01T11:49:19.094Z,19200.00
2023-04-01T11:50:19.097Z,18368.00
2023-04-01T11:51:19.092Z,18880.00
2023-04-01T11:52:19.109Z,19008.00
2023-04-01T11:53:19.039Z,18816.00
2023-04-01T11:54:19.065Z,19296.00
2023-04-01T11:55:19.026Z,18400.00
2023-04-01T11:56:19.004Z,17120.00
2023-04-01T11:57:19.020Z,20000.00
2023-04-01T11:58:19.005Z,19424.00
2023-04-01T11:59:18.979Z,18656.00
2023-04-01T12:00:18.945Z,20160.00
2023-04-01T12:01:18.939Z,19456.00
2023-04-01T12:02:21.178Z,18656.00
2023-04-01T12:03:19.060Z,19360.00
2023-04-01T12:04:19.116Z,18688.00
2023-04-01T12:05:18.874Z,15840.00
2023-04-01T12:06:18.871Z,19808.00
2023-04-01T12:07:19.409Z,16896.00
2023-04-01T12:08:18.841Z,17024.00
2023-04-01T12:09:18.850Z,19392.00
2023-04-01T12:10:18.849Z,19072.00
2023-04-01T12:11:18.815Z,12896.00
2023-04-01T12:12:18.813Z,17408.00
2023-04-01T12:13:18.771Z,17568.00
2023-04-01T12:14:18.774Z,14056.00
2023-04-01T12:15:18.770Z,8320.00
2023-04-01T12:16:18.860Z,9800.00
2023-04-01T12:17:18.752Z,8396.00
2023-04-01T12:18:18.999Z,11700.00
2023-04-01T12:19:18.730Z,13856.00
2023-04-01T12:20:18.720Z,21504.00
2023-04-01T12:21:18.749Z,21920.00
2023-04-01T12:22:18.750Z,20992.00
2023-04-01T12:23:18.654Z,20608.00
2023-04-01T12:24:18.626Z,21888.00
2023-04-01T12:25:18.655Z,22336.00